createdAt,value
2019-03-03T00:03:31.680Z,66.85
2019-03-03T00:08:33.764Z,66.58
2019-03-03T00:13:35.858Z,66.58
2019-03-03T00:18:38.123Z,65.11
2019-03-03T00:23:40.207Z,66.42
2019-03-03T00:28:42.254Z,63.58
2019-03-03T00:33:44.328Z,63.58
2019-03-03T00:38:57.853Z,63.78
2019-03-03T00:44:32.694Z,63.78
2019-03-03T00:49:46.206Z,63.48
2019-03-03T00:54:58.225Z,63.26
2019-03-03T01:00:16.805Z,66.10
2019-03-03T01:05:38.156Z,64.02
2019-03-03T01:10:55.307Z,64.02
2019-03-03T01:16:08.994Z,63.76
2019-03-03T01:21:23.901Z,65.68
2019-03-03T01:26:26.140Z,65.68
2019-03-03T01:31:30.344Z,67.14
2019-03-03T01:36:32.552Z,65.29
2019-03-03T01:41:34.965Z,66.67
2019-03-03T01:46:37.140Z,69.53
2019-03-03T01:51:42.297Z,68.02
2019-03-03T01:56:44.429Z,68.02
2019-03-03T02:01:49.514Z,68.95
2019-03-03T02:06:52.105Z,68.81
2019-03-03T02:11:54.170Z,67.40
2019-03-03T02:16:56.351Z,69.60
2019-03-03T02:21:58.790Z,72.31
2019-03-03T02:27:00.930Z,73.35
2019-03-03T02:32:06.133Z,71.46
2019-03-03T02:37:08.272Z,73.33
2019-03-03T02:42:12.672Z,72.94
2019-03-03T02:47:15.272Z,73.04
2019-03-03T02:52:17.703Z,73.12
2019-03-03T02:57:26.897Z,72.61
2019-03-03T03:02:50.153Z,71.99
2019-03-03T03:08:00.360Z,71.95
2019-03-03T03:13:21.985Z,71.92
2019-03-03T03:18:44.984Z,71.65
2019-03-03T03:24:00.097Z,72.08
2019-03-03T03:29:12.722Z,71.81
2019-03-03T03:34:23.202Z,72.35
2019-03-03T03:39:43.720Z,72.38
2019-03-03T03:45:17.495Z,73.30
2019-03-03T03:50:28.324Z,73.04
2019-03-03T03:55:47.804Z,75.05
2019-03-03T04:01:19.772Z,77.20
2019-03-03T04:06:40.005Z,78.49
2019-03-03T04:11:48.674Z,77.94
2019-03-03T04:17:10.333Z,77.19
2019-03-03T04:22:37.834Z,78.16
2019-03-03T04:28:05.596Z,77.90
2019-03-03T04:33:22.231Z,79.09
2019-03-03T04:38:50.779Z,79.29
2019-03-03T04:44:01.679Z,79.97
2019-03-03T04:49:19.710Z,81.57
2019-03-03T04:54:42.166Z,81.45
2019-03-03T05:00:22.166Z,81.54
2019-03-03T05:05:34.377Z,80.75
2019-03-03T05:10:53.054Z,81.41
2019-03-03T05:16:20.767Z,81.13
2019-03-03T05:21:22.826Z,81.71
2019-03-03T05:26:28.567Z,80.54
2019-03-03T05:31:30.592Z,81.34
2019-03-03T05:36:32.750Z,81.07
2019-03-03T05:41:34.873Z,81.74
2019-03-03T05:46:36.970Z,82.15
2019-03-03T05:51:43.235Z,81.01
2019-03-03T05:56:45.504Z,81.95
2019-03-03T06:01:47.597Z,80.41
2019-03-03T06:06:49.804Z,81.82
2019-03-03T06:11:51.911Z,81.68
2019-03-03T06:16:56.806Z,80.78
2019-03-03T06:21:58.908Z,81.66
2019-03-03T06:27:01.129Z,81.69
2019-03-03T06:32:05.758Z,81.62
2019-03-03T06:37:07.877Z,81.28
2019-03-03T06:42:12.456Z,81.51
2019-03-03T06:47:17.152Z,80.91
2019-03-03T06:52:23.209Z,81.18
2019-03-03T06:57:28.051Z,81.62
2019-03-03T07:02:32.839Z,81.86
2019-03-03T07:07:37.619Z,82.20
2019-03-03T07:12:42.669Z,82.92
2019-03-03T07:17:45.786Z,82.93
2019-03-03T07:22:47.877Z,83.03
2019-03-03T07:27:50.050Z,83.04
2019-03-03T07:33:11.705Z,83.17
2019-03-03T07:38:16.902Z,83.31
2019-03-03T07:43:19.026Z,82.70
2019-03-03T07:48:21.324Z,82.95
2019-03-03T07:53:23.405Z,82.97
2019-03-03T07:58:28.179Z,83.82
2019-03-03T08:03:30.210Z,83.60
2019-03-03T08:08:32.357Z,82.31
2019-03-03T08:13:34.484Z,82.58
2019-03-03T08:18:36.594Z,82.67
2019-03-03T08:23:38.686Z,83.23
2019-03-03T08:28:44.446Z,82.83
2019-03-03T08:33:46.529Z,83.77
2019-03-03T08:38:48.813Z,82.85
2019-03-03T08:44:01.304Z,83.05
2019-03-03T08:49:24.445Z,83.07
2019-03-03T08:54:41.045Z,83.07
2019-03-03T09:00:05.011Z,82.85
2019-03-03T09:05:25.512Z,83.19
2019-03-03T09:10:50.186Z,83.40
2019-03-03T09:16:10.548Z,82.77
2019-03-03T09:21:19.733Z,83.29
2019-03-03T09:26:44.505Z,83.81
2019-03-03T09:32:24.457Z,83.52
2019-03-03T09:37:48.884Z,84.00
2019-03-03T09:43:05.894Z,83.07
2019-03-03T09:48:15.259Z,83.07
2019-03-03T09:53:40.543Z,83.49
2019-03-03T09:59:00.733Z,83.12
2019-03-03T10:04:18.526Z,82.70
2019-03-03T10:09:45.484Z,81.58
2019-03-03T10:15:26.505Z,81.85
2019-03-03T10:20:39.861Z,81.76
2019-03-03T10:25:49.952Z,81.66
2019-03-03T10:31:10.094Z,81.39
2019-03-03T10:36:33.467Z,80.92
2019-03-03T10:42:00.773Z,81.40
2019-03-03T10:47:17.294Z,80.63
2019-03-03T10:52:33.314Z,80.58
2019-03-03T10:57:51.084Z,80.43
2019-03-03T11:03:11.757Z,80.43
2019-03-03T11:08:42.627Z,80.87
2019-03-03T11:13:59.951Z,80.28
2019-03-03T11:19:17.615Z,79.78
2019-03-03T11:24:46.357Z,79.78
2019-03-03T11:29:59.760Z,80.26
2019-03-03T11:35:27.577Z,80.26
2019-03-03T11:40:45.433Z,80.34
2019-03-03T11:46:11.387Z,80.34
2019-03-03T11:51:34.292Z,79.51
2019-03-03T11:56:56.948Z,80.27
2019-03-03T12:02:20.937Z,80.27
2019-03-03T12:07:46.279Z,80.50
2019-03-03T12:13:07.948Z,80.14
2019-03-03T12:18:29.975Z,80.14
2019-03-03T12:24:05.201Z,81.13
2019-03-03T12:29:26.945Z,81.13
2019-03-03T12:34:54.743Z,80.87
2019-03-03T12:40:08.102Z,80.27
2019-03-03T12:45:24.486Z,81.28
2019-03-03T12:50:44.943Z,81.00
2019-03-03T12:56:09.619Z,81.03
2019-03-03T13:01:34.933Z,81.21
2019-03-03T13:07:13.781Z,81.25
2019-03-03T13:12:37.428Z,81.15
2019-03-03T13:18:12.989Z,82.40
2019-03-03T13:23:34.577Z,82.40
2019-03-03T13:28:50.092Z,82.12
2019-03-03T13:34:14.777Z,82.12
2019-03-03T13:39:31.101Z,81.32
2019-03-03T13:44:36.152Z,81.06
2019-03-03T13:49:49.329Z,81.06
2019-03-03T13:54:53.839Z,80.03
2019-03-03T13:59:55.877Z,79.27
2019-03-03T14:04:58.011Z,78.63
2019-03-03T14:10:01.722Z,78.63
2019-03-03T14:15:06.007Z,78.41
2019-03-03T14:20:15.273Z,78.15
2019-03-03T14:25:17.610Z,78.97
2019-03-03T14:30:23.447Z,79.20
2019-03-03T14:35:25.564Z,79.20
2019-03-03T14:40:27.698Z,78.97
2019-03-03T14:45:29.777Z,78.14
2019-03-03T14:50:31.850Z,78.23
2019-03-03T14:55:34.057Z,77.86
2019-03-03T15:00:36.131Z,77.79
2019-03-03T15:05:38.374Z,77.92
2019-03-03T15:10:41.012Z,77.88
2019-03-03T15:15:44.968Z,78.28
2019-03-03T15:20:47.112Z,78.21
2019-03-03T15:25:52.935Z,77.54
2019-03-03T15:30:55.076Z,77.04
2019-03-03T15:35:57.416Z,76.69
2019-03-03T15:41:00.449Z,76.37
2019-03-03T15:46:02.816Z,77.59
2019-03-03T15:51:06.008Z,79.12
2019-03-03T15:56:08.278Z,79.12
2019-03-03T16:01:21.154Z,79.35
2019-03-03T16:06:30.529Z,77.55
2019-03-03T16:11:32.655Z,77.86
2019-03-03T16:16:36.617Z,75.45
2019-03-03T16:21:42.847Z,75.39
2019-03-03T16:26:46.667Z,75.64
2019-03-03T16:31:48.749Z,74.17
2019-03-03T16:36:53.646Z,73.60
2019-03-03T16:41:59.633Z,74.44
2019-03-03T16:47:02.980Z,73.58
2019-03-03T16:52:05.153Z,73.58
2019-03-03T16:57:10.245Z,73.64
2019-03-03T17:02:12.353Z,73.42
2019-03-03T17:07:15.923Z,73.42
2019-03-03T17:12:20.344Z,72.94
2019-03-03T17:17:24.654Z,73.55
2019-03-03T17:22:30.140Z,72.70
2019-03-03T17:27:32.262Z,73.36
2019-03-03T17:32:38.978Z,72.26
2019-03-03T17:37:41.118Z,71.59
2019-03-03T17:42:43.515Z,71.59
2019-03-03T17:47:45.653Z,71.48
2019-03-03T17:52:47.843Z,71.67
2019-03-03T17:57:53.164Z,72.08
2019-03-03T18:02:56.437Z,71.53
2019-03-03T18:07:59.138Z,71.77
2019-03-03T18:13:01.255Z,72.26
2019-03-03T18:18:03.525Z,71.41
2019-03-03T18:23:08.502Z,71.55
2019-03-03T18:28:10.856Z,71.55
2019-03-03T18:33:13.034Z,72.71
2019-03-03T18:38:18.196Z,74.07
2019-03-03T18:43:20.283Z,73.58
2019-03-03T18:48:22.597Z,74.34
2019-03-03T18:53:24.688Z,73.42
2019-03-03T18:58:36.616Z,73.63
2019-03-03T19:03:38.645Z,73.63
2019-03-03T19:08:43.729Z,73.24
2019-03-03T19:13:49.159Z,72.81
2019-03-03T19:18:52.325Z,73.46
2019-03-03T19:23:54.712Z,73.35
2019-03-03T19:28:58.017Z,74.49
2019-03-03T19:34:05.030Z,73.01
2019-03-03T19:39:07.513Z,72.97
2019-03-03T19:44:11.227Z,73.28
2019-03-03T19:49:15.907Z,74.19
2019-03-03T19:54:17.993Z,75.06
2019-03-03T19:59:21.952Z,73.59
2019-03-03T20:04:24.313Z,73.59
2019-03-03T20:09:26.586Z,73.63
2019-03-03T20:14:31.758Z,73.63
2019-03-03T20:19:36.574Z,73.11
2019-03-03T20:24:41.044Z,72.73
2019-03-03T20:29:45.954Z,72.52
2019-03-03T20:34:48.117Z,73.34
2019-03-03T20:39:50.412Z,73.34
2019-03-03T20:44:52.677Z,72.98
2019-03-03T20:49:55.062Z,73.18
2019-03-03T20:54:58.983Z,71.01
2019-03-03T21:00:01.099Z,71.01
2019-03-03T21:05:04.105Z,70.10
2019-03-03T21:10:07.004Z,70.16
2019-03-03T21:15:09.389Z,70.16
2019-03-03T21:20:14.762Z,70.83
2019-03-03T21:25:19.691Z,70.50
2019-03-03T21:30:22.325Z,70.53
2019-03-03T21:35:24.531Z,70.83
2019-03-03T21:40:26.712Z,69.92
2019-03-03T21:45:29.215Z,69.88
2019-03-03T21:50:34.471Z,69.91
2019-03-03T21:55:40.002Z,69.74
2019-03-03T22:00:45.614Z,70.56
2019-03-03T22:05:49.115Z,70.56
2019-03-03T22:10:51.478Z,69.91
2019-03-03T22:15:54.944Z,70.41
2019-03-03T22:21:00.079Z,69.60
2019-03-03T22:26:05.030Z,70.32
2019-03-03T22:31:08.715Z,69.43
2019-03-03T22:36:13.309Z,68.99
2019-03-03T22:41:15.470Z,68.99
2019-03-03T22:46:20.393Z,69.44
2019-03-03T22:51:22.440Z,69.44
2019-03-03T22:56:24.781Z,69.60
2019-03-03T23:01:33.858Z,69.43
2019-03-03T23:06:46.335Z,69.43
2019-03-03T23:12:16.996Z,69.79
2019-03-03T23:18:09.828Z,68.94
2019-03-03T23:23:55.304Z,69.21
2019-03-03T23:28:59.679Z,69.02
2019-03-03T23:34:01.840Z,68.87
2019-03-03T23:39:07.615Z,68.08
2019-03-03T23:44:09.650Z,68.38
2019-03-03T23:49:13.755Z,68.67
2019-03-03T23:54:18.244Z,69.29
2019-03-03T23:59:22.739Z,69.99
